Time;durP1;ratioP1;P1;durP2;ratioP2;P2;SDS_P1;SDS_P2;PMS_P1;PMS_P2;Temp;Humidity;BMP_temperature;BMP_pressure;BME280_temperature;BME280_humidity;BME280_pressure;Samples;Min_cycle;Max_cycle;Signal;HPM_P1;HPM_P2
2021/03/02 00:01:50;;;;;;;34.73;23.23;;;;;;;7.06;59.36;103446.16;6211352;28;20233;-55
2021/03/02 00:05:12;;;;;;;29.60;21.50;;;;;;;7.06;59.39;103435.78;6203144;28;20228;-54
2021/03/02 00:08:36;;;;;;;28.77;21.17;;;;;;;7.04;59.28;103440.88;6205220;28;20256;-57
2021/03/02 00:11:56;;;;;;;26.17;21.17;;;;;;;7.00;59.56;103444.16;6207061;28;20225;-57
2021/03/02 00:15:17;;;;;;;33.43;23.07;;;;;;;6.98;59.41;103444.88;6214240;28;20229;-53
2021/03/02 00:18:46;;;;;;;33.27;22.70;;;;;;;6.86;59.65;103443.50;6211852;28;20221;-56
2021/03/02 00:22:14;;;;;;;29.33;23.17;;;;;;;6.79;59.76;103438.81;6212551;28;20705;-56
2021/03/02 00:25:37;;;;;;;36.83;22.40;;;;;;;6.53;61.05;103439.25;6201156;28;20229;-54
2021/03/02 00:29:02;;;;;;;33.20;21.63;;;;;;;6.63;60.77;103451.81;6209661;28;20229;-55
2021/03/02 00:32:23;;;;;;;31.47;21.27;;;;;;;6.64;59.97;103430.31;6213564;28;20225;-55
2021/03/02 00:35:44;;;;;;;32.77;24.30;;;;;;;6.66;60.06;103444.22;6176039;28;20320;-56
2021/03/02 00:39:05;;;;;;;32.27;22.17;;;;;;;6.62;59.89;103432.81;6209538;28;20489;-55
2021/03/02 00:42:26;;;;;;;30.80;22.37;;;;;;;6.52;60.56;103435.78;6212076;28;20241;-57
2021/03/02 00:45:47;;;;;;;29.70;23.50;;;;;;;6.53;60.49;103423.72;6210524;28;20295;-56
2021/03/02 00:49:07;;;;;;;30.40;21.07;;;;;;;6.55;60.55;103419.50;6215558;28;20266;-54
2021/03/02 00:52:27;;;;;;;36.40;22.83;;;;;;;6.44;60.71;103429.34;6185293;28;20610;-54
2021/03/02 00:55:48;;;;;;;30.50;22.47;;;;;;;6.53;60.14;103418.53;6213358;28;20225;-53
2021/03/02 00:59:10;;;;;;;36.80;24.10;;;;;;;6.50;60.22;103425.34;6198704;28;20229;-57
2021/03/02 01:02:30;;;;;;;31.43;22.37;;;;;;;6.54;60.09;103417.72;6199327;28;20233;-56
2021/03/02 01:05:51;;;;;;;31.20;24.57;;;;;;;6.39;60.46;103416.16;6179170;28;20336;-55
2021/03/02 01:09:18;;;;;;;26.77;21.50;;;;;;;6.42;60.45;103411.13;6215733;28;20229;-56
2021/03/02 01:12:41;;;;;;;34.00;23.63;;;;;;;6.33;60.39;103410.66;6218434;28;20517;-56
2021/03/02 01:16:04;;;;;;;32.57;25.17;;;;;;;6.23;60.45;103404.16;6203943;28;20232;-58
2021/03/02 01:19:25;;;;;;;32.57;22.53;;;;;;;6.26;61.03;103403.41;6214606;28;20336;-56
2021/03/02 01:22:45;;;;;;;33.47;24.73;;;;;;;6.21;61.10;103402.31;6211197;28;20331;-54
2021/03/02 01:26:06;;;;;;;29.03;23.43;;;;;;;6.19;61.15;103398.75;6211958;28;20763;-54
2021/03/02 01:29:26;;;;;;;33.50;22.73;;;;;;;6.16;61.37;103401.16;6217038;28;20248;-56
2021/03/02 01:32:47;;;;;;;32.87;24.57;;;;;;;6.03;62.24;103400.56;6211408;28;20248;-53
2021/03/02 01:36:08;;;;;;;31.40;23.00;;;;;;;5.98;62.01;103406.31;6218188;28;20630;-53
2021/03/02 01:39:28;;;;;;;29.63;22.93;;;;;;;6.18;61.61;103399.53;6205420;28;20228;-56
2021/03/02 01:42:49;;;;;;;32.03;23.13;;;;;;;5.80;62.79;103393.28;6216038;28;20237;-55
2021/03/02 01:46:10;;;;;;;35.63;24.40;;;;;;;6.11;61.60;103400.97;6218199;28;20269;-57
2021/03/02 01:49:32;;;;;;;36.93;25.93;;;;;;;5.37;64.12;103393.59;6220109;28;20721;-52
2021/03/02 01:52:53;;;;;;;36.37;26.70;;;;;;;5.52;63.72;103394.41;6217788;28;20229;-55
2021/03/02 01:56:14;;;;;;;29.40;22.80;;;;;;;5.83;62.55;103396.03;6217082;28;20237;-56
2021/03/02 01:59:34;;;;;;;32.50;24.53;;;;;;;5.88;61.50;103399.75;6203244;28;20229;-57
2021/03/02 02:03:04;;;;;;;36.60;26.30;;;;;;;5.88;61.77;103402.34;6212342;28;20241;-57
2021/03/02 02:06:32;;;;;;;39.33;27.93;;;;;;;5.85;61.95;103402.16;6212543;28;20245;-55
2021/03/02 02:09:57;;;;;;;37.77;26.10;;;;;;;5.80;61.79;103398.47;6209942;28;20239;-57
2021/03/02 02:13:23;;;;;;;35.13;26.50;;;;;;;5.82;61.67;103405.47;6215228;28;20229;-56
2021/03/02 02:16:48;;;;;;;40.93;27.70;;;;;;;5.53;63.12;103403.97;6212492;28;20222;-55
2021/03/02 02:20:11;;;;;;;39.30;26.80;;;;;;;5.71;61.99;103399.75;6212237;28;20237;-54
2021/03/02 02:23:42;;;;;;;39.30;29.37;;;;;;;5.16;64.38;103389.06;6210454;28;20233;-56
2021/03/02 02:27:04;;;;;;;44.77;29.57;;;;;;;4.54;67.57;103389.94;6208828;28;20225;-55
2021/03/02 02:30:25;;;;;;;42.60;29.90;;;;;;;4.79;66.72;103389.63;6215596;28;20234;-57
2021/03/02 02:33:50;;;;;;;42.73;27.67;;;;;;;4.60;67.43;103400.59;6211756;28;20316;-54
2021/03/02 02:37:12;;;;;;;42.27;29.60;;;;;;;4.93;65.81;103392.97;6215967;28;20233;-56
2021/03/02 02:40:33;;;;;;;34.50;24.93;;;;;;;5.22;64.55;103391.97;6213547;28;20564;-57
2021/03/02 02:43:55;;;;;;;43.67;27.23;;;;;;;5.51;63.40;103393.53;6212115;28;20245;-56
2021/03/02 02:47:17;;;;;;;42.60;26.40;;;;;;;5.24;64.48;103395.53;6213968;28;20225;-55
2021/03/02 02:50:38;;;;;;;39.30;25.87;;;;;;;5.12;64.65;103398.34;6200385;28;20233;-52
2021/03/02 02:53:59;;;;;;;37.63;26.47;;;;;;;5.37;64.01;103399.69;6206788;28;20253;-58
2021/03/02 02:57:21;;;;;;;32.90;24.57;;;;;;;5.33;64.38;103397.72;6210117;28;20225;-53
2021/03/02 03:00:44;;;;;;;42.07;23.23;;;;;;;5.24;64.06;103398.13;6210596;28;20229;-57
2021/03/02 03:04:08;;;;;;;30.57;22.47;;;;;;;5.43;63.36;103391.34;6213373;28;20237;-57
2021/03/02 03:07:33;;;;;;;47.90;23.13;;;;;;;5.03;63.90;103392.66;6200709;28;20560;-57
2021/03/02 03:10:55;;;;;;;71.03;25.30;;;;;;;4.88;64.11;103397.84;6199154;28;20244;-53
2021/03/02 03:14:19;;;;;;;30.90;21.60;;;;;;;4.96;64.60;103394.81;6212055;28;20226;-56
2021/03/02 03:17:44;;;;;;;32.73;22.53;;;;;;;4.14;67.36;103403.97;6217647;28;20634;-52
2021/03/02 03:21:05;;;;;;;36.37;23.40;;;;;;;4.40;66.24;103399.47;6210832;28;20606;-57
2021/03/02 03:24:26;;;;;;;30.30;19.60;;;;;;;4.03;67.52;103399.91;6211665;28;20245;-54
2021/03/02 03:27:49;;;;;;;71.57;21.93;;;;;;;4.00;67.55;103399.72;6212370;28;20229;-55
2021/03/02 03:31:11;;;;;;;33.17;21.17;;;;;;;4.19;67.22;103405.94;6214778;28;20224;-54
2021/03/02 03:34:33;;;;;;;26.57;20.40;;;;;;;4.12;67.81;103403.00;6212291;28;20264;-58
2021/03/02 03:37:54;;;;;;;34.73;20.40;;;;;;;4.59;65.80;103395.34;6214622;28;20221;-56
2021/03/02 03:41:16;;;;;;;23.10;17.77;;;;;;;4.62;64.84;103396.41;6210751;28;20256;-55
2021/03/02 03:44:36;;;;;;;81.40;19.83;;;;;;;3.69;66.12;103392.72;6215883;28;20233;-54
2021/03/02 03:47:57;;;;;;;101.63;23.37;;;;;;;2.46;71.05;103402.13;6211689;28;20238;-54
2021/03/02 03:51:20;;;;;;;40.27;19.90;;;;;;;2.73;70.54;103406.53;6211647;28;20620;-56
2021/03/02 03:54:43;;;;;;;20.00;18.03;;;;;;;3.41;69.33;103399.56;6204652;28;20228;-56
2021/03/02 03:58:04;;;;;;;69.23;20.53;;;;;;;2.82;69.83;103401.06;6210963;28;20229;-57
2021/03/02 04:01:25;;;;;;;23.17;17.77;;;;;;;3.55;68.13;103393.59;6213580;28;20241;-54
2021/03/02 04:04:46;;;;;;;20.17;18.03;;;;;;;4.04;65.97;103383.63;6211519;28;20233;-57
2021/03/02 04:08:08;;;;;;;22.27;17.90;;;;;;;4.12;66.12;103390.09;6214293;28;20225;-56
2021/03/02 04:11:29;;;;;;;81.13;72.50;;;;;;;4.51;65.10;103390.63;6209737;28;20618;-57
2021/03/02 04:14:49;;;;;;;35.23;28.67;;;;;;;4.30;64.96;103384.25;6214010;28;20611;-50
2021/03/02 04:18:12;;;;;;;23.67;19.33;;;;;;;4.37;64.79;103399.28;6210927;28;20237;-55
2021/03/02 04:21:33;;;;;;;20.70;17.27;;;;;;;4.30;64.70;103385.16;6213164;28;20510;-56
2021/03/02 04:24:54;;;;;;;22.50;17.00;;;;;;;4.23;64.33;103382.13;6215032;28;20630;-53
2021/03/02 04:28:14;;;;;;;26.17;17.97;;;;;;;4.33;63.40;103387.00;6211759;28;20237;-56
2021/03/02 04:31:34;;;;;;;29.30;19.30;;;;;;;4.22;64.27;103390.66;6210610;28;20233;-55
2021/03/02 04:34:55;;;;;;;22.40;16.90;;;;;;;4.25;64.24;103394.31;6210794;28;20237;-52
2021/03/02 04:38:16;;;;;;;19.97;17.23;;;;;;;4.25;63.07;103388.25;6207300;28;20252;-54
2021/03/02 04:41:37;;;;;;;19.23;16.20;;;;;;;4.28;63.13;103383.25;6218510;28;20237;-51
2021/03/02 04:44:57;;;;;;;16.90;15.20;;;;;;;4.10;64.62;103381.41;6215220;28;20332;-56
2021/03/02 04:48:18;;;;;;;17.57;15.67;;;;;;;4.12;63.80;103384.94;6219429;28;20237;-56
2021/03/02 04:51:38;;;;;;;17.33;15.57;;;;;;;4.12;63.76;103384.94;6214197;28;20643;-57
2021/03/02 04:54:59;;;;;;;17.23;15.50;;;;;;;4.16;62.90;103374.81;6217322;28;20229;-57
2021/03/02 04:58:20;;;;;;;19.00;14.73;;;;;;;4.19;62.31;103385.31;6219627;28;20615;-57
2021/03/02 05:01:41;;;;;;;17.70;15.40;;;;;;;4.25;62.39;103390.84;6215523;28;20233;-54
2021/03/02 05:05:02;;;;;;;15.43;13.93;;;;;;;4.30;62.11;103385.16;6214449;28;20619;-57
2021/03/02 05:08:22;;;;;;;21.10;16.80;;;;;;;4.14;66.74;103392.78;6215137;28;20229;-57
2021/03/02 05:11:43;;;;;;;31.00;27.80;;;;;;;4.31;64.92;103383.47;6213044;28;20236;-57
2021/03/02 05:15:06;;;;;;;28.60;25.70;;;;;;;4.39;64.41;103396.81;6217058;28;20236;-56
2021/03/02 05:18:27;;;;;;;22.73;19.23;;;;;;;4.03;65.09;103384.44;6214899;28;20248;-57
2021/03/02 05:21:47;;;;;;;33.93;28.70;;;;;;;3.99;65.44;103391.88;6210961;28;20225;-56
2021/03/02 05:25:08;;;;;;;24.83;18.73;;;;;;;3.84;63.39;103394.44;6204955;28;20538;-56
2021/03/02 05:28:29;;;;;;;25.10;15.87;;;;;;;3.83;63.77;103392.66;6216194;28;20225;-56
2021/03/02 05:31:50;;;;;;;23.17;16.00;;;;;;;3.65;64.19;103392.47;6205754;28;20233;-56
2021/03/02 05:35:11;;;;;;;21.40;14.93;;;;;;;3.84;64.75;103392.75;6215310;28;20804;-57
2021/03/02 05:38:32;;;;;;;20.03;16.80;;;;;;;3.97;63.49;103391.78;6213401;28;20228;-59
2021/03/02 05:41:53;;;;;;;19.67;13.80;;;;;;;3.93;63.75;103390.72;6208470;28;20604;-57
2021/03/02 05:45:15;;;;;;;17.60;14.93;;;;;;;4.10;63.06;103388.25;6217545;28;20505;-59
2021/03/02 05:48:41;;;;;;;61.87;55.17;;;;;;;3.91;64.98;103394.00;6210631;28;20244;-54
2021/03/02 05:52:03;;;;;;;31.20;21.70;;;;;;;3.65;67.67;103401.06;6201481;28;20241;-55
2021/03/02 05:55:24;;;;;;;30.23;18.30;;;;;;;3.97;65.07;103403.78;6213733;28;20229;-56
2021/03/02 05:58:44;;;;;;;63.30;18.13;;;;;;;3.10;66.42;103398.56;6215069;28;20241;-51
2021/03/02 06:02:05;;;;;;;20.07;14.33;;;;;;;3.14;66.19;103395.38;6208095;28;20233;-57
2021/03/02 06:05:26;;;;;;;32.30;15.17;;;;;;;3.24;66.66;103399.41;6209936;28;20245;-56
2021/03/02 06:08:47;;;;;;;22.00;14.03;;;;;;;3.59;65.03;103392.97;6217513;28;20286;-55
2021/03/02 06:12:07;;;;;;;25.57;14.87;;;;;;;3.28;65.55;103398.81;6215931;28;20229;-59
2021/03/02 06:15:30;;;;;;;16.43;13.80;;;;;;;3.50;65.67;103397.56;6218304;28;20225;-53
2021/03/02 06:18:52;;;;;;;24.93;15.67;;;;;;;2.98;66.94;103404.59;6208173;28;20244;-55
2021/03/02 06:22:34;;;;;;;37.80;14.93;;;;;;;2.34;69.12;103404.78;6211079;28;20241;-56
2021/03/02 06:25:56;;;;;;;18.80;15.23;;;;;;;2.72;68.66;103407.28;6215383;28;20291;-57
2021/03/02 06:29:17;;;;;;;26.63;19.87;;;;;;;3.14;67.30;103389.31;6212398;28;20241;-58
2021/03/02 06:32:39;;;;;;;20.70;15.87;;;;;;;3.55;64.72;103398.75;6208404;28;20238;-56
2021/03/02 06:36:00;;;;;;;21.20;17.67;;;;;;;3.83;63.81;103392.66;6213349;28;20248;-58
2021/03/02 06:39:28;;;;;;;23.37;15.13;;;;;;;3.22;66.05;103403.59;6212339;28;20221;-58
2021/03/02 06:42:48;;;;;;;28.57;25.00;;;;;;;3.48;64.56;103399.16;6197157;28;20233;-57
2021/03/02 06:46:10;;;;;;;38.40;34.27;;;;;;;3.60;64.49;103397.31;6209678;28;20270;-57
2021/03/02 06:49:42;;;;;;;21.93;18.73;;;;;;;3.34;64.42;103406.03;6215496;28;20229;-56
2021/03/02 06:53:08;;;;;;;33.40;29.33;;;;;;;3.26;64.88;103400.41;6202034;28;20236;-57
2021/03/02 06:56:30;;;;;;;20.43;18.13;;;;;;;3.35;65.32;103408.72;6213186;28;20776;-58
2021/03/02 06:59:52;;;;;;;28.93;22.20;;;;;;;3.63;64.18;103405.25;6209257;28;20344;-56
2021/03/02 07:03:24;;;;;;;26.70;22.57;;;;;;;3.86;62.76;103405.75;6213613;28;20250;-56
2021/03/02 07:06:46;;;;;;;20.53;17.33;;;;;;;3.40;63.93;103405.53;6203414;28;20327;-57
2021/03/02 07:10:09;;;;;;;25.97;16.57;;;;;;;3.29;64.28;103404.84;6183783;28;20388;-57
2021/03/02 07:13:32;;;;;;;19.20;16.97;;;;;;;3.28;64.92;103406.53;6211613;28;20603;-57
2021/03/02 07:16:54;;;;;;;24.03;17.10;;;;;;;2.79;66.10;103417.97;6207352;28;20233;-57
2021/03/02 07:20:17;;;;;;;21.27;16.97;;;;;;;2.93;66.87;103410.34;6215380;28;20522;-56
2021/03/02 07:23:40;;;;;;;19.50;16.97;;;;;;;3.14;65.28;103410.84;6215092;28;20256;-58
2021/03/02 07:27:04;;;;;;;20.63;16.07;;;;;;;2.84;65.74;103414.91;6213164;28;20236;-59
2021/03/02 07:30:26;;;;;;;19.20;16.27;;;;;;;3.65;63.87;103415.66;6214398;28;20552;-54
2021/03/02 07:33:47;;;;;;;25.07;17.83;;;;;;;3.55;63.26;103409.03;6190852;28;20233;-55
2021/03/02 07:37:09;;;;;;;28.27;25.17;;;;;;;3.17;66.37;103410.13;6205836;28;20254;-60
2021/03/02 07:40:42;;;;;;;27.50;21.10;;;;;;;2.89;65.97;103408.38;6196104;28;20255;-59
2021/03/02 07:44:03;;;;;;;24.33;17.83;;;;;;;3.34;65.40;103408.63;6199881;28;20237;-57
2021/03/02 07:47:41;;;;;;;29.27;19.97;;;;;;;3.11;65.49;103408.06;6199906;28;20265;-59
2021/03/02 07:51:21;;;;;;;29.57;23.50;;;;;;;3.55;65.87;103422.81;6199237;28;20240;-59
2021/03/02 07:54:42;;;;;;;23.20;18.43;;;;;;;3.89;64.20;103422.25;6194563;28;20252;-53
2021/03/02 07:58:16;;;;;;;22.00;17.70;;;;;;;4.46;61.77;103414.38;6200587;28;20237;-56
2021/03/02 08:01:37;;;;;;;26.67;18.37;;;;;;;4.77;60.87;103410.97;6198250;28;20236;-57
2021/03/02 08:05:29;;;;;;;19.40;17.27;;;;;;;5.07;60.29;103419.56;6202989;28;20236;-55
2021/03/02 08:08:50;;;;;;;28.50;21.33;;;;;;;4.60;60.08;103435.84;6199038;28;20237;-57
2021/03/02 08:12:25;;;;;;;26.67;21.77;;;;;;;4.59;61.18;103436.63;6198171;28;20634;-57
2021/03/02 08:15:46;;;;;;;35.57;28.63;;;;;;;4.77;60.78;103444.53;6197834;28;20229;-57
2021/03/02 08:19:31;;;;;;;30.17;22.53;;;;;;;5.11;60.49;103437.00;6199537;28;20257;-52
2021/03/02 08:22:52;;;;;;;24.30;20.30;;;;;;;4.81;60.84;103437.06;6196121;28;20805;-57
2021/03/02 08:26:24;;;;;;;36.57;32.13;;;;;;;5.23;60.91;103440.25;6197970;28;20346;-57
2021/03/02 08:29:49;;;;;;;41.50;28.57;;;;;;;5.22;59.79;103435.91;6196442;28;20308;-57
2021/03/02 08:33:14;;;;;;;28.03;23.13;;;;;;;5.28;59.99;103441.41;6168652;28;22677;-57
2021/03/02 08:36:35;;;;;;;25.97;19.37;;;;;;;5.92;58.52;103438.75;6177492;28;20233;-57
2021/03/02 08:39:57;;;;;;;25.37;19.27;;;;;;;6.41;57.39;103437.81;6196408;28;20225;-56
2021/03/02 08:43:20;;;;;;;23.10;18.37;;;;;;;6.10;57.33;103446.63;6211951;28;20236;-57
2021/03/02 08:46:41;;;;;;;24.57;18.73;;;;;;;5.81;59.15;103439.00;6208381;28;20229;-56
2021/03/02 08:50:03;;;;;;;24.50;21.60;;;;;;;6.13;58.23;103439.81;6219219;28;20247;-57
2021/03/02 08:53:38;;;;;;;28.33;21.50;;;;;;;5.64;60.13;103445.88;6454069;23;20233;-55
2021/03/02 08:57:01;;;;;;;26.53;21.33;;;;;;;5.68;59.68;103430.63;6202135;28;20233;-54
2021/03/02 09:00:22;;;;;;;24.93;20.33;;;;;;;6.43;57.68;103433.59;6203790;28;20236;-55
2021/03/02 09:03:44;;;;;;;25.67;20.50;;;;;;;6.53;57.37;103449.59;6199225;28;20237;-58
2021/03/02 09:07:05;;;;;;;21.20;18.57;;;;;;;6.68;57.48;103450.34;6199758;28;20240;-57
2021/03/02 09:10:25;;;;;;;22.10;18.00;;;;;;;7.32;55.84;103438.69;6182237;28;20226;-58
2021/03/02 09:13:47;;;;;;;24.93;22.13;;;;;;;7.30;55.73;103436.91;6189219;28;20226;-57
2021/03/02 09:17:08;;;;;;;29.50;23.90;;;;;;;7.55;55.17;103443.22;6211528;28;20237;-56
2021/03/02 09:20:28;;;;;;;25.60;20.23;;;;;;;7.20;55.97;103441.63;6198989;28;20313;-59
2021/03/02 09:23:48;;;;;;;24.90;18.47;;;;;;;7.39;55.98;103439.06;6209134;28;20229;-59
2021/03/02 09:27:10;;;;;;;23.57;18.67;;;;;;;7.47;55.83;103439.41;6193610;28;20233;-57
2021/03/02 09:30:32;;;;;;;24.33;19.73;;;;;;;7.04;56.27;103440.00;6190832;28;20682;-58
2021/03/02 09:33:54;;;;;;;21.03;18.83;;;;;;;7.18;56.92;103441.53;6199634;28;20225;-60
2021/03/02 09:37:16;;;;;;;27.27;19.40;;;;;;;7.95;56.04;103434.63;6197682;28;20868;-58
2021/03/02 09:40:41;;;;;;;20.63;18.00;;;;;;;7.52;56.23;103443.06;6201983;28;20237;-57
2021/03/02 09:44:27;;;;;;;22.00;18.37;;;;;;;7.26;56.19;103432.41;6218059;28;20237;-56
2021/03/02 09:47:58;;;;;;;22.57;20.17;;;;;;;7.22;57.17;103434.78;6214602;28;20229;-55
2021/03/02 09:51:37;;;;;;;22.27;19.53;;;;;;;7.92;55.33;103434.50;6215934;28;20487;-55
2021/03/02 09:55:22;;;;;;;22.87;18.10;;;;;;;9.35;52.63;103419.53;6208878;28;20336;-57
2021/03/02 09:58:47;;;;;;;22.00;18.67;;;;;;;10.67;49.86;103420.66;6212417;28;20260;-58
2021/03/02 10:02:08;;;;;;;19.60;17.10;;;;;;;11.03;47.87;103413.09;6217115;28;20329;-58
2021/03/02 10:05:35;;;;;;;20.20;16.97;;;;;;;13.13;43.06;103403.75;6211103;28;20320;-57
2021/03/02 10:08:55;;;;;;;22.37;17.43;;;;;;;17.06;35.14;103399.41;6186859;28;20233;-56
2021/03/02 10:12:16;;;;;;;21.77;17.00;;;;;;;17.75;32.98;103398.75;6215396;28;20233;-57
2021/03/02 10:15:36;;;;;;;21.33;17.97;;;;;;;21.22;27.65;103385.47;6209924;28;20237;-59
2021/03/02 10:18:59;;;;;;;25.83;23.23;;;;;;;22.86;24.47;103386.34;6208437;28;20229;-58
2021/03/02 10:22:24;;;;;;;19.83;17.77;;;;;;;19.47;28.12;103400.28;6209745;28;20234;-58
2021/03/02 10:25:45;;;;;;;19.55;17.65;;;;;;;21.29;26.18;103394.22;6198438;28;20265;-58
2021/03/02 10:29:07;;;;;;;20.75;18.65;;;;;;;19.10;29.05;103402.22;6186396;28;20238;-58
2021/03/02 10:32:27;;;;;;;20.98;18.75;;;;;;;21.50;25.11;103400.16;6171909;28;20233;-59
2021/03/02 10:35:48;;;;;;;19.10;16.98;;;;;;;22.14;25.28;103399.16;6201147;28;20540;-59
2021/03/02 10:39:11;;;;;;;19.60;17.17;;;;;;;23.73;23.35;103388.00;6187366;28;20225;-60
2021/03/02 10:42:32;;;;;;;21.20;17.85;;;;;;;22.91;24.07;103395.09;6201308;28;20580;-59
2021/03/02 10:45:52;;;;;;;19.42;17.42;;;;;;;24.21;21.67;103389.50;6198723;28;20230;-62
2021/03/02 10:49:13;;;;;;;20.45;18.48;;;;;;;20.48;27.14;103390.72;6188120;28;20234;-59
2021/03/02 10:52:34;;;;;;;19.50;17.60;;;;;;;22.44;24.78;103404.84;6205235;28;20323;-60
2021/03/02 10:55:55;;;;;;;18.20;16.33;;;;;;;24.43;22.03;103396.03;6198857;28;20244;-61
2021/03/02 10:59:16;;;;;;;21.23;19.05;;;;;;;25.84;20.74;103393.66;6191623;28;20230;-61
2021/03/02 11:02:36;;;;;;;21.65;19.40;;;;;;;22.28;24.19;103392.78;6212685;28;20233;-61
2021/03/02 11:05:57;;;;;;;22.95;20.67;;;;;;;23.41;22.89;103394.09;6202430;28;20259;-59
2021/03/02 11:09:18;;;;;;;22.20;18.50;;;;;;;25.33;20.54;103387.25;6207290;28;20634;-62
2021/03/02 11:12:39;;;;;;;24.48;22.17;;;;;;;25.05;21.26;103387.19;6210756;28;20229;-60
2021/03/02 11:15:59;;;;;;;20.63;18.45;;;;;;;25.68;20.83;103385.25;6210702;28;20228;-60
2021/03/02 11:19:20;;;;;;;21.30;18.90;;;;;;;25.78;20.44;103379.63;6212047;28;20221;-61
2021/03/02 11:22:40;;;;;;;22.05;20.05;;;;;;;24.96;21.19;103375.00;6211810;28;20233;-60
2021/03/02 11:26:01;;;;;;;19.83;17.85;;;;;;;28.90;18.31;103363.78;6209783;28;20614;-60
2021/03/02 11:29:22;;;;;;;52.00;38.20;;;;;;;23.88;22.97;103360.19;6196849;28;20226;-49
2021/03/02 11:32:43;;;;;;;34.70;31.42;;;;;;;26.50;19.50;103359.34;6211784;28;20233;-56
2021/03/02 11:36:04;;;;;;;92.88;84.93;;;;;;;29.13;17.66;103357.34;6204025;28;20324;-55
2021/03/02 11:39:24;;;;;;;22.60;20.42;;;;;;;24.77;22.02;103356.00;6206245;28;20225;-60
2021/03/02 11:42:44;;;;;;;22.35;20.15;;;;;;;25.09;21.05;103354.19;6202544;28;20546;-59
2021/03/02 11:46:06;;;;;;;21.63;19.63;;;;;;;24.80;22.04;103351.53;6209884;28;20233;-59
2021/03/02 11:49:27;;;;;;;22.38;20.38;;;;;;;22.26;25.47;103345.03;6212238;28;20228;-59
2021/03/02 11:52:47;;;;;;;19.20;17.30;;;;;;;24.92;21.70;103341.38;6211076;28;20241;-58
2021/03/02 11:56:08;;;;;;;19.05;17.15;;;;;;;25.77;20.61;103336.06;6191598;28;20257;-58
2021/03/02 11:59:29;;;;;;;21.05;18.83;;;;;;;24.91;21.70;103338.75;6213048;28;20232;-59
2021/03/02 12:02:50;;;;;;;20.75;18.60;;;;;;;28.23;18.57;103318.53;6209225;28;20221;-57
2021/03/02 12:06:11;;;;;;;21.77;19.52;;;;;;;29.78;16.89;103320.16;6200332;28;20237;-60
2021/03/02 12:09:32;;;;;;;19.77;17.92;;;;;;;28.05;18.78;103317.56;6210010;28;20540;-58
2021/03/02 12:12:52;;;;;;;20.27;18.38;;;;;;;25.23;21.65;103324.47;6208648;28;20225;-59
2021/03/02 12:16:13;;;;;;;20.85;18.88;;;;;;;25.88;21.46;103317.00;6207265;28;20233;-58
2021/03/02 12:19:34;;;;;;;18.85;17.10;;;;;;;26.59;20.25;103320.72;6212506;28;20237;-60
2021/03/02 12:22:55;;;;;;;17.65;15.93;;;;;;;24.10;23.34;103302.84;6181077;28;20222;-58
2021/03/02 12:26:15;;;;;;;16.85;15.25;;;;;;;26.05;21.26;103308.44;6199689;28;20241;-59
2021/03/02 12:29:36;;;;;;;18.55;16.80;;;;;;;25.45;21.89;103310.44;6195597;28;20567;-58
2021/03/02 12:32:57;;;;;;;21.70;19.58;;;;;;;26.39;20.80;103293.88;6204477;28;20685;-60
2021/03/02 12:36:19;;;;;;;18.58;16.77;;;;;;;24.21;23.53;103283.88;6201174;28;20241;-57
2021/03/02 12:39:40;;;;;;;17.60;15.85;;;;;;;25.88;22.00;103292.97;6191902;28;20264;-59
2021/03/02 12:43:00;;;;;;;17.85;16.30;;;;;;;29.48;18.26;103276.94;6196958;28;20237;-58
2021/03/02 12:46:21;;;;;;;17.75;16.05;;;;;;;29.77;17.21;103280.81;6183494;28;20656;-59
2021/03/02 12:49:42;;;;;;;18.08;16.38;;;;;;;27.48;19.73;103268.22;6196121;28;20229;-59
2021/03/02 12:53:03;;;;;;;17.73;16.10;;;;;;;28.71;18.84;103270.78;6211898;28;20240;-60
2021/03/02 12:56:24;;;;;;;17.33;15.73;;;;;;;28.67;18.39;103266.53;6190638;28;20265;-57
2021/03/02 12:59:45;;;;;;;16.63;15.05;;;;;;;27.94;19.50;103255.56;6209624;28;20552;-60
2021/03/02 13:03:06;;;;;;;18.52;16.83;;;;;;;27.27;20.38;103253.94;6199340;28;20627;-58
2021/03/02 13:06:27;;;;;;;17.27;15.70;;;;;;;27.17;20.74;103252.56;6189065;28;20234;-68
2021/03/02 13:09:49;;;;;;;18.77;16.88;;;;;;;26.71;21.33;103255.25;6199314;28;20252;-67
2021/03/02 13:13:10;;;;;;;19.88;17.95;;;;;;;25.04;22.74;103249.47;6179644;28;20237;-57
2021/03/02 13:16:31;;;;;;;19.55;17.63;;;;;;;22.65;26.53;103241.59;6189985;28;20336;-59
2021/03/02 13:19:52;;;;;;;19.70;17.63;;;;;;;21.56;27.79;103238.38;6203318;28;20875;-58
2021/03/02 13:23:13;;;;;;;20.08;17.15;;;;;;;22.80;26.17;103235.06;6203661;28;20229;-59
2021/03/02 13:26:35;;;;;;;22.17;18.75;;;;;;;20.22;30.37;103229.56;6207628;28;20512;-59
2021/03/02 13:30:00;;;;;;;19.38;17.48;;;;;;;19.96;30.81;103227.22;6207089;28;20753;-58
2021/03/02 13:33:25;;;;;;;19.63;17.60;;;;;;;22.42;27.15;103218.19;6207833;28;20253;-58
2021/03/02 13:36:48;;;;;;;19.02;17.10;;;;;;;20.60;29.86;103229.13;6210607;28;20233;-56
2021/03/02 13:40:10;;;;;;;18.63;16.70;;;;;;;22.47;27.20;103220.72;6192673;28;20610;-54
2021/03/02 13:43:37;;;;;;;23.45;18.73;;;;;;;22.00;27.46;103220.75;6220339;28;20252;-57
2021/03/02 13:46:57;;;;;;;19.13;16.77;;;;;;;22.07;26.91;103217.06;6192172;28;20237;-56
2021/03/02 13:50:18;;;;;;;18.40;16.58;;;;;;;23.01;25.62;103217.72;6195290;28;20230;-60
2021/03/02 13:53:39;;;;;;;16.38;14.77;;;;;;;22.40;26.75;103210.25;6217765;28;20245;-57
2021/03/02 13:57:01;;;;;;;18.73;15.85;;;;;;;22.51;26.28;103204.72;6211746;28;20248;-57
2021/03/02 14:00:25;;;;;;;18.50;16.52;;;;;;;23.32;25.66;103195.75;6212159;28;20241;-60
2021/03/02 14:03:46;;;;;;;16.65;15.07;;;;;;;23.44;24.93;103189.25;6211449;28;20713;-57
2021/03/02 14:07:07;;;;;;;19.60;17.40;;;;;;;22.06;26.75;103190.56;6208102;28;20560;-57
2021/03/02 14:10:28;;;;;;;19.52;16.73;;;;;;;23.57;25.12;103191.59;6201359;28;20244;-57
2021/03/02 14:13:48;;;;;;;20.23;18.23;;;;;;;22.49;26.33;103187.94;6216278;28;20236;-57
2021/03/02 14:17:12;;;;;;;21.90;17.48;;;;;;;21.87;27.89;103198.00;6211141;28;20221;-56
2021/03/02 14:20:32;;;;;;;19.73;17.75;;;;;;;21.89;27.83;103190.88;6214915;28;20237;-58
2021/03/02 14:23:53;;;;;;;20.02;17.00;;;;;;;22.13;27.31;103194.84;6208477;28;20252;-57
2021/03/02 14:27:16;;;;;;;19.42;17.35;;;;;;;23.91;25.39;103185.38;6209834;28;20525;-54
2021/03/02 14:30:37;;;;;;;18.48;16.58;;;;;;;23.44;25.22;103174.19;6217770;28;20268;-57
2021/03/02 14:33:59;;;;;;;16.92;15.27;;;;;;;23.22;25.35;103178.31;6210695;28;20268;-58
2021/03/02 14:37:19;;;;;;;17.15;14.52;;;;;;;22.78;25.49;103184.63;6213518;28;20226;-55
2021/03/02 14:40:40;;;;;;;18.52;15.00;;;;;;;19.84;30.04;103181.50;6206768;28;20225;-60
2021/03/02 14:44:05;;;;;;;16.33;14.63;;;;;;;22.36;26.55;103178.50;6215041;28;20222;-58
2021/03/02 14:47:31;;;;;;;17.85;15.93;;;;;;;22.05;26.13;103175.56;6210136;28;20229;-58
2021/03/02 14:50:53;;;;;;;17.00;15.35;;;;;;;20.39;28.58;103172.03;6210567;28;20596;-56
2021/03/02 14:54:15;;;;;;;22.33;14.77;;;;;;;21.52;27.04;103165.06;6208185;28;20233;-57
2021/03/02 14:57:38;;;;;;;16.45;14.52;;;;;;;21.23;26.60;103163.78;6213855;28;20233;-54
2021/03/02 15:01:00;;;;;;;16.52;14.68;;;;;;;21.52;25.09;103159.75;6202092;28;20824;-56
2021/03/02 15:04:21;;;;;;;16.42;14.43;;;;;;;20.61;26.61;103159.44;6193179;28;20260;-53
2021/03/02 15:07:43;;;;;;;15.68;14.02;;;;;;;20.86;25.30;103156.44;6191584;28;20233;-54
2021/03/02 15:11:04;;;;;;;15.77;13.07;;;;;;;20.50;27.43;103148.06;6203076;28;20269;-67
2021/03/02 15:14:27;;;;;;;13.82;11.88;;;;;;;18.09;28.77;103156.25;6198477;28;20229;-66
2021/03/02 15:17:48;;;;;;;14.77;12.63;;;;;;;18.00;31.78;103151.88;6199154;28;20232;-66
2021/03/02 15:21:09;;;;;;;19.30;15.48;;;;;;;18.40;28.02;103151.72;6209018;28;20253;-56
2021/03/02 15:24:32;;;;;;;18.40;13.88;;;;;;;18.92;28.01;103150.59;6210338;28;20233;-55
2021/03/02 15:27:55;;;;;;;16.37;13.27;;;;;;;19.09;27.97;103147.78;6188309;28;20317;-54